Time;durP1;ratioP1;P1;durP2;ratioP2;P2;SDS_P1;SDS_P2;PMS_P1;PMS_P2;Temp;Humidity;BMP_temperature;BMP_pressure;BME280_temperature;BME280_humidity;BME280_pressure;Samples;Min_cycle;Max_cycle;Signal;HPM_P1;HPM_P2
2022/03/07 00:00:30;;;;;;;14.05;9.15;;;-0.90;85.40;;;;;;6202702;23;20019;-70
2022/03/07 00:02:56;;;;;;;12.25;8.30;;;-1.20;85.10;;;;;;6203646;23;20099;-71
2022/03/07 00:05:21;;;;;;;11.43;7.65;;;-1.30;85.40;;;;;;6206080;23;20072;-70
2022/03/07 00:07:47;;;;;;;11.90;7.75;;;-1.50;85.60;;;;;;6204056;23;20044;-71
2022/03/07 00:10:13;;;;;;;12.35;7.38;;;-1.60;86.20;;;;;;6177491;23;20456;-71
2022/03/07 00:12:39;;;;;;;14.15;6.70;;;-1.70;86.80;;;;;;6205404;23;20013;-72
2022/03/07 00:15:05;;;;;;;21.65;11.70;;;-1.70;88.00;;;;;;6203843;23;20017;-71
2022/03/07 00:17:30;;;;;;;26.13;13.35;;;-1.60;87.90;;;;;;6200706;23;20005;-71
2022/03/07 00:19:56;;;;;;;11.88;7.75;;;-1.40;86.60;;;;;;6205260;23;20005;-71
2022/03/07 00:22:21;;;;;;;11.43;6.82;;;-1.30;86.00;;;;;;6203241;23;20012;-71
2022/03/07 00:24:47;;;;;;;13.48;8.18;;;-1.10;85.90;;;;;;6204761;23;20475;-70
2022/03/07 00:27:13;;;;;;;15.77;9.73;;;-1.00;85.30;;;;;;6204376;23;20024;-71
2022/03/07 00:29:38;;;;;;;15.02;9.63;;;-0.90;85.20;;;;;;6202116;23;20389;-71
2022/03/07 00:32:05;;;;;;;19.58;12.27;;;-0.80;85.30;;;;;;6202228;23;20330;-71
2022/03/07 00:34:30;;;;;;;14.82;8.65;;;-0.80;85.10;;;;;;6204206;23;20084;-72
2022/03/07 00:36:56;;;;;;;12.55;7.97;;;-0.90;84.30;;;;;;6203090;23;20624;-70
2022/03/07 00:39:22;;;;;;;12.43;7.95;;;-1.00;85.00;;;;;;6205669;23;20020;-72
2022/03/07 00:41:47;;;;;;;12.73;7.60;;;-1.00;84.30;;;;;;6203816;23;20013;-72
2022/03/07 00:44:13;;;;;;;12.35;7.25;;;-1.20;84.70;;;;;;6202615;23;20009;-71
2022/03/07 00:46:39;;;;;;;10.90;7.50;;;-1.30;85.10;;;;;;6202875;23;20005;-72
2022/03/07 00:49:05;;;;;;;16.15;8.73;;;-1.40;85.30;;;;;;6203898;23;20345;-71
2022/03/07 00:51:30;;;;;;;13.85;8.70;;;-1.40;87.10;;;;;;6204132;23;20012;-71
2022/03/07 00:53:56;;;;;;;25.52;13.68;;;-1.30;87.10;;;;;;6203241;23;20060;-73
2022/03/07 00:56:22;;;;;;;18.98;11.05;;;-1.30;86.90;;;;;;6201658;23;20028;-73
2022/03/07 00:58:47;;;;;;;15.85;9.60;;;-1.20;87.30;;;;;;6203179;23;20507;-73
2022/03/07 01:01:13;;;;;;;11.07;7.75;;;-1.30;87.00;;;;;;6202546;23;20039;-73
2022/03/07 01:03:39;;;;;;;10.63;8.02;;;-1.30;86.50;;;;;;6203538;23;20080;-71
2022/03/07 01:06:05;;;;;;;13.75;7.63;;;-1.40;86.70;;;;;;6203475;23;20016;-71
2022/03/07 01:08:30;;;;;;;14.30;7.60;;;-1.50;87.30;;;;;;6202664;23;20021;-71
2022/03/07 01:10:56;;;;;;;10.10;6.85;;;-1.50;85.50;;;;;;6177317;23;20011;-71
2022/03/07 01:13:22;;;;;;;11.77;6.90;;;-1.60;84.60;;;;;;6205001;23;20013;-72
2022/03/07 01:15:48;;;;;;;12.63;6.93;;;-1.60;85.20;;;;;;6201513;23;20031;-71
2022/03/07 01:18:14;;;;;;;12.60;7.55;;;-1.70;86.70;;;;;;6203492;23;20103;-71
2022/03/07 01:20:41;;;;;;;11.32;7.68;;;-1.90;86.70;;;;;;6203422;23;20557;-71
2022/03/07 01:23:07;;;;;;;17.83;8.18;;;-2.00;88.20;;;;;;6202880;23;20036;-71
2022/03/07 01:25:32;;;;;;;10.57;7.40;;;-2.10;88.90;;;;;;6202743;23;20029;-71
2022/03/07 01:27:58;;;;;;;12.85;8.63;;;-2.00;89.30;;;;;;6202573;23;20802;-71
2022/03/07 01:30:24;;;;;;;15.85;9.05;;;-1.80;88.80;;;;;;6203681;23;20016;-71
2022/03/07 01:32:52;;;;;;;16.25;10.63;;;-1.80;89.00;;;;;;6204524;23;20012;-71
2022/03/07 01:35:19;;;;;;;18.33;11.75;;;-1.70;88.50;;;;;;6203854;23;20009;-71
2022/03/07 01:37:45;;;;;;;14.57;10.30;;;-1.60;89.00;;;;;;6201634;23;20420;-71
2022/03/07 01:40:11;;;;;;;16.13;10.95;;;-1.60;88.70;;;;;;6203121;23;20047;-71
2022/03/07 01:42:37;;;;;;;12.68;7.75;;;-1.70;89.30;;;;;;6203904;23;20457;-71
2022/03/07 01:45:16;;;;;;;12.02;8.95;;;-1.70;89.40;;;;;;6204135;23;20099;-71
2022/03/07 01:47:42;;;;;;;12.98;8.35;;;-1.80;87.90;;;;;;6203883;23;20504;-71
2022/03/07 01:50:13;;;;;;;10.10;6.88;;;-1.90;87.90;;;;;;6202586;23;20000;-71
2022/03/07 01:52:42;;;;;;;12.63;8.00;;;-2.10;88.60;;;;;;6203264;23;20005;-71
2022/03/07 01:55:09;;;;;;;12.60;7.40;;;-2.10;89.00;;;;;;6203911;23;20028;-71
2022/03/07 01:57:40;;;;;;;13.82;8.75;;;-2.30;90.00;;;;;;6202308;23;20079;-71
2022/03/07 02:00:09;;;;;;;14.82;10.27;;;-2.30;89.80;;;;;;6202238;23;20001;-71
2022/03/07 02:02:35;;;;;;;18.10;11.15;;;-2.40;90.40;;;;;;6204554;23;20380;-71
2022/03/07 02:05:00;;;;;;;17.13;11.73;;;-2.30;90.60;;;;;;6201847;23;20012;-71
2022/03/07 02:07:26;;;;;;;16.85;10.75;;;-2.20;90.50;;;;;;6203746;23;20035;-71
2022/03/07 02:09:52;;;;;;;17.75;11.00;;;-2.10;90.60;;;;;;6203558;23;20015;-71
2022/03/07 02:12:18;;;;;;;17.45;11.43;;;-2.00;90.40;;;;;;6204178;23;20005;-71
2022/03/07 02:14:44;;;;;;;19.85;11.65;;;-2.00;90.70;;;;;;6202901;23;20019;-71
2022/03/07 02:17:09;;;;;;;16.38;10.20;;;-2.00;90.10;;;;;;6202184;23;20083;-71
2022/03/07 02:19:36;;;;;;;17.42;10.52;;;-2.00;90.30;;;;;;6205523;23;20013;-71
2022/03/07 02:22:06;;;;;;;15.18;10.35;;;-2.10;90.10;;;;;;6203288;23;20015;-71
2022/03/07 02:24:32;;;;;;;13.18;10.07;;;-2.20;90.20;;;;;;6203287;23;20009;-71
2022/03/07 02:27:02;;;;;;;17.17;11.02;;;-2.20;90.80;;;;;;6203472;23;20100;-71
2022/03/07 02:29:29;;;;;;;16.02;10.82;;;-2.20;90.20;;;;;;6203367;23;20032;-71
2022/03/07 02:31:55;;;;;;;18.35;11.25;;;-2.20;90.10;;;;;;6202512;23;20012;-71
2022/03/07 02:34:21;;;;;;;21.00;12.32;;;-2.30;90.20;;;;;;6203612;23;20005;-71
2022/03/07 02:36:47;;;;;;;18.80;11.90;;;-2.20;90.50;;;;;;6201699;23;20083;-71
2022/03/07 02:39:13;;;;;;;15.73;10.70;;;-2.00;90.30;;;;;;6203732;23;20009;-71
2022/03/07 02:41:40;;;;;;;19.83;12.63;;;-2.00;90.50;;;;;;6203788;23;20017;-71
2022/03/07 02:44:07;;;;;;;13.18;8.65;;;-1.90;90.70;;;;;;6203270;23;20015;-71
2022/03/07 02:46:32;;;;;;;17.17;10.98;;;-1.80;89.80;;;;;;6202324;23;19996;-71
2022/03/07 02:48:58;;;;;;;20.38;12.35;;;-1.90;88.80;;;;;;6202643;23;20012;-70
2022/03/07 02:51:24;;;;;;;18.38;11.68;;;-2.00;90.10;;;;;;6203242;23;20016;-71
2022/03/07 02:53:49;;;;;;;18.75;11.48;;;-1.90;90.30;;;;;;6203779;23;20011;-71
2022/03/07 02:56:16;;;;;;;20.33;12.02;;;-1.90;89.00;;;;;;6203704;23;20009;-71
2022/03/07 02:58:42;;;;;;;19.02;12.05;;;-2.00;90.20;;;;;;6203675;23;20059;-72
2022/03/07 03:01:08;;;;;;;18.13;11.48;;;-2.00;89.60;;;;;;6202714;23;20004;-71
2022/03/07 03:03:34;;;;;;;18.27;11.48;;;-2.10;90.40;;;;;;6203710;23;20055;-71
2022/03/07 03:06:00;;;;;;;18.25;11.25;;;-2.10;90.80;;;;;;6202137;23;20322;-71
2022/03/07 03:08:25;;;;;;;17.38;10.75;;;-2.10;91.00;;;;;;6202511;23;20017;-70
2022/03/07 03:10:52;;;;;;;17.27;10.77;;;-2.10;91.20;;;;;;6202974;23;20001;-71
2022/03/07 03:13:20;;;;;;;14.30;9.93;;;-2.10;90.90;;;;;;6203067;23;20075;-71
2022/03/07 03:15:46;;;;;;;15.63;10.68;;;-2.10;89.80;;;;;;6203237;23;20373;-73
2022/03/07 03:18:16;;;;;;;15.57;10.60;;;-2.20;89.40;;;;;;6202915;23;20008;-71
2022/03/07 03:20:43;;;;;;;17.17;11.38;;;-2.30;90.10;;;;;;6203650;23;20001;-71
2022/03/07 03:23:09;;;;;;;21.65;12.30;;;-2.30;90.30;;;;;;6204195;23;20014;-71
2022/03/07 03:25:35;;;;;;;18.25;11.70;;;-2.40;90.20;;;;;;6202739;23;20012;-72
2022/03/07 03:28:01;;;;;;;16.95;11.75;;;-2.50;90.30;;;;;;6203894;23;20377;-70
2022/03/07 03:30:27;;;;;;;17.30;11.05;;;-2.50;90.70;;;;;;6202328;23;20139;-71
2022/03/07 03:32:52;;;;;;;16.63;11.40;;;-2.50;91.40;;;;;;6204702;23;20005;-71
2022/03/07 03:35:18;;;;;;;15.95;9.80;;;-2.40;91.60;;;;;;6202234;23;20013;-70
2022/03/07 03:37:44;;;;;;;15.80;10.00;;;-2.40;90.60;;;;;;6202315;23;20012;-70
2022/03/07 03:40:12;;;;;;;14.23;9.38;;;-2.50;90.60;;;;;;6202026;23;20105;-72
2022/03/07 03:42:38;;;;;;;16.52;10.35;;;-2.50;90.30;;;;;;6203442;23;20017;-71
2022/03/07 03:45:05;;;;;;;15.75;9.02;;;-2.60;90.30;;;;;;6201990;23;20028;-71
2022/03/07 03:47:32;;;;;;;18.27;11.57;;;-2.70;90.00;;;;;;6204153;23;20099;-71
2022/03/07 03:49:58;;;;;;;16.67;10.13;;;-2.80;90.50;;;;;;6203460;23;20001;-70
2022/03/07 03:52:24;;;;;;;18.30;11.27;;;-2.80;90.80;;;;;;6203307;23;20012;-72
2022/03/07 03:54:50;;;;;;;17.13;10.82;;;-2.80;90.90;;;;;;6203240;23;20009;-71
2022/03/07 03:57:16;;;;;;;18.70;11.40;;;-2.80;91.40;;;;;;6204183;23;20036;-71
2022/03/07 03:59:42;;;;;;;14.85;9.95;;;-2.70;91.70;;;;;;6202885;23;20008;-71
2022/03/07 04:02:08;;;;;;;17.80;10.80;;;-2.70;91.70;;;;;;6201589;23;20466;-71
2022/03/07 04:04:34;;;;;;;17.80;11.73;;;-2.80;92.00;;;;;;6203590;23;20012;-71
2022/03/07 04:06:59;;;;;;;19.83;12.00;;;-3.00;92.30;;;;;;6202983;23;20418;-71
2022/03/07 04:09:25;;;;;;;22.55;13.60;;;-3.10;92.70;;;;;;6204803;23;20434;-71
2022/03/07 04:11:51;;;;;;;23.33;13.02;;;-2.90;93.50;;;;;;6202388;23;20107;-71
2022/03/07 04:14:17;;;;;;;18.98;12.35;;;-2.80;93.10;;;;;;6204512;23;20054;-71
2022/03/07 04:16:43;;;;;;;22.88;12.45;;;-2.80;93.00;;;;;;6203752;23;20012;-71
2022/03/07 04:19:11;;;;;;;21.98;13.63;;;-2.70;92.60;;;;;;6204218;23;20013;-71
2022/03/07 04:21:39;;;;;;;22.73;14.23;;;-2.60;92.50;;;;;;6205367;23;20013;-71
2022/03/07 04:24:06;;;;;;;20.60;13.13;;;-2.50;92.60;;;;;;6205280;23;20079;-71
2022/03/07 04:26:32;;;;;;;21.20;13.23;;;-2.30;92.40;;;;;;6205140;23;20024;-71
2022/03/07 04:28:58;;;;;;;19.38;12.93;;;-2.10;92.30;;;;;;6203431;23;20038;-71
2022/03/07 04:31:24;;;;;;;20.23;13.05;;;-1.90;92.20;;;;;;6203788;23;20059;-71
2022/03/07 04:33:49;;;;;;;17.80;12.30;;;-1.80;92.10;;;;;;6204459;23;20008;-71
2022/03/07 04:36:20;;;;;;;22.45;12.68;;;-1.80;91.80;;;;;;6204891;23;20063;-71
2022/03/07 04:38:46;;;;;;;21.33;13.68;;;-1.50;91.90;;;;;;6203651;23;20012;-71
2022/03/07 04:41:12;;;;;;;18.55;12.90;;;-1.30;91.70;;;;;;6204127;23;20027;-71
2022/03/07 04:43:37;;;;;;;17.50;12.23;;;-1.30;91.60;;;;;;6204310;23;20015;-71
2022/03/07 04:46:06;;;;;;;20.75;12.65;;;-1.40;91.30;;;;;;6204295;23;20469;-71
2022/03/07 04:48:31;;;;;;;20.20;12.45;;;-1.40;91.60;;;;;;6202305;23;20201;-71
2022/03/07 04:50:57;;;;;;;21.60;13.75;;;-1.50;91.20;;;;;;6203633;23;20443;-70
2022/03/07 04:53:23;;;;;;;20.70;13.35;;;-1.80;91.70;;;;;;6177695;23;20518;-71
2022/03/07 04:55:49;;;;;;;21.45;12.57;;;-1.90;92.10;;;;;;6203356;23;20040;-71
2022/03/07 04:58:14;;;;;;;19.23;12.82;;;-1.80;92.30;;;;;;6204126;23;20039;-71
2022/03/07 05:00:40;;;;;;;34.72;13.50;;;-1.90;92.20;;;;;;6202331;23;20449;-71
2022/03/07 05:03:05;;;;;;;23.45;14.00;;;-1.90;92.10;;;;;;6202934;23;20020;-72
2022/03/07 05:05:31;;;;;;;21.58;13.98;;;-1.90;92.30;;;;;;6203168;23;20059;-71
2022/03/07 05:07:57;;;;;;;24.33;13.55;;;-1.80;92.20;;;;;;6202982;23;20021;-72
2022/03/07 05:10:23;;;;;;;20.80;13.55;;;-1.80;92.20;;;;;;6204253;23;20016;-72
2022/03/07 05:12:48;;;;;;;20.08;12.93;;;-1.90;92.10;;;;;;6203728;23;20649;-72
2022/03/07 05:15:14;;;;;;;20.30;12.55;;;-2.00;92.10;;;;;;6203012;23;20005;-71
2022/03/07 05:17:45;;;;;;;22.30;14.52;;;-2.00;92.50;;;;;;6202689;23;20023;-71
2022/03/07 05:20:12;;;;;;;26.40;15.90;;;-2.00;92.40;;;;;;6204292;23;20441;-72
2022/03/07 05:22:38;;;;;;;24.42;15.93;;;-2.10;92.40;;;;;;6205247;23;20059;-72
2022/03/07 05:25:05;;;;;;;25.58;15.85;;;-2.10;92.80;;;;;;6203656;23;20001;-72
2022/03/07 05:27:31;;;;;;;24.40;15.27;;;-2.20;93.00;;;;;;6200908;23;20020;-72
2022/03/07 05:29:56;;;;;;;27.83;16.55;;;-2.20;93.10;;;;;;6202268;23;20004;-72
2022/03/07 05:32:22;;;;;;;26.02;15.65;;;-2.10;93.20;;;;;;6202291;23;20445;-71
2022/03/07 05:34:48;;;;;;;25.23;15.38;;;-2.00;93.10;;;;;;6204649;23;20004;-70
2022/03/07 05:37:13;;;;;;;21.83;13.60;;;-1.90;93.10;;;;;;6203783;23;20005;-71
2022/03/07 05:39:39;;;;;;;23.50;14.32;;;-1.90;92.90;;;;;;6203467;23;20341;-71
2022/03/07 05:42:05;;;;;;;25.92;13.80;;;-1.80;93.10;;;;;;6202543;23;20186;-71
2022/03/07 05:44:32;;;;;;;21.30;13.27;;;-1.80;93.20;;;;;;6199963;23;20888;-71
2022/03/07 05:46:57;;;;;;;21.17;12.25;;;-1.70;92.70;;;;;;6172901;23;20057;-74
2022/03/07 05:49:23;;;;;;;23.95;15.10;;;-1.60;92.60;;;;;;6204039;23;20016;-74
2022/03/07 05:51:49;;;;;;;23.48;14.63;;;-1.70;92.80;;;;;;6201538;23;20004;-74
2022/03/07 05:54:14;;;;;;;24.80;15.02;;;-1.70;92.90;;;;;;6203000;23;20492;-75
2022/03/07 05:56:40;;;;;;;22.55;14.57;;;-1.70;93.30;;;;;;6204857;23;20005;-73
2022/03/07 05:59:06;;;;;;;24.30;15.57;;;-1.60;93.10;;;;;;6202036;23;20070;-74
2022/03/07 06:01:32;;;;;;;23.67;15.02;;;-1.70;93.20;;;;;;6201734;23;20000;-72
2022/03/07 06:03:57;;;;;;;24.23;15.60;;;-1.70;93.40;;;;;;6174324;23;20016;-71
2022/03/07 06:06:23;;;;;;;26.48;16.65;;;-1.70;93.60;;;;;;6203346;23;20129;-71
2022/03/07 06:08:49;;;;;;;27.77;17.02;;;-1.80;93.70;;;;;;6201618;23;20104;-69
2022/03/07 06:11:15;;;;;;;34.15;20.20;;;-1.70;94.10;;;;;;6202711;23;20098;-72
2022/03/07 06:13:40;;;;;;;34.28;20.02;;;-1.60;94.20;;;;;;6203860;23;20024;-71
2022/03/07 06:16:06;;;;;;;33.08;19.38;;;-1.60;93.80;;;;;;6201959;23;20027;-75
2022/03/07 06:18:32;;;;;;;36.38;19.77;;;-1.50;93.90;;;;;;6201940;23;20047;-71
2022/03/07 06:20:57;;;;;;;30.05;18.75;;;-1.60;94.20;;;;;;6203180;23;20055;-71
2022/03/07 06:23:23;;;;;;;32.33;20.25;;;-1.70;94.50;;;;;;6202077;23;20012;-71
2022/03/07 06:25:49;;;;;;;29.27;17.92;;;-1.60;94.70;;;;;;6203495;23;20004;-70
2022/03/07 06:28:15;;;;;;;26.42;17.33;;;-1.50;94.80;;;;;;6202020;23;20470;-70
2022/03/07 06:30:41;;;;;;;22.85;15.85;;;-1.50;95.00;;;;;;6201620;23;20087;-70
2022/03/07 06:33:07;;;;;;;26.88;17.02;;;-1.40;95.20;;;;;;6201245;23;20581;-75
2022/03/07 06:35:32;;;;;;;27.77;16.70;;;-1.30;94.70;;;;;;6202477;23;20426;-71
2022/03/07 06:37:58;;;;;;;30.30;18.92;;;-1.40;94.80;;;;;;6201594;23;20055;-74
2022/03/07 06:40:24;;;;;;;21.67;15.90;;;-1.30;94.90;;;;;;6201662;23;20759;-76
2022/03/07 06:42:50;;;;;;;25.42;16.45;;;-1.00;94.70;;;;;;6203290;23;20009;-75
2022/03/07 06:45:17;;;;;;;29.35;17.67;;;-0.70;94.20;;;;;;6202062;23;20083;-74
2022/03/07 06:47:44;;;;;;;28.75;17.65;;;-0.40;93.80;;;;;;6202701;23;20079;-73
2022/03/07 06:50:11;;;;;;;24.90;16.92;;;-0.20;93.30;;;;;;6201746;23;20027;-74
2022/03/07 06:52:37;;;;;;;32.05;17.85;;;0.00;93.00;;;;;;6203897;23;20011;-73
2022/03/07 06:55:04;;;;;;;29.48;18.58;;;0.20;92.80;;;;;;6202058;23;20009;-73
2022/03/07 06:57:30;;;;;;;32.42;21.17;;;0.40;92.20;;;;;;6203168;23;20067;-74
2022/03/07 06:59:56;;;;;;;29.75;18.25;;;0.50;92.10;;;;;;6202887;23;20013;-73
2022/03/07 07:02:21;;;;;;;31.52;19.95;;;0.70;92.10;;;;;;6202502;23;20022;-73
2022/03/07 07:04:47;;;;;;;40.40;26.25;;;0.90;91.80;;;;;;6202416;23;20005;-73
2022/03/07 07:07:14;;;;;;;29.77;18.35;;;1.00;91.70;;;;;;6203871;23;20397;-73
2022/03/07 07:09:41;;;;;;;25.83;18.20;;;1.00;91.70;;;;;;6202724;23;20016;-73
2022/03/07 07:12:07;;;;;;;22.35;16.95;;;1.00;92.10;;;;;;6203607;23;20155;-72
2022/03/07 07:14:33;;;;;;;22.35;14.73;;;1.10;92.10;;;;;;6204765;23;20060;-73
2022/03/07 07:16:59;;;;;;;20.08;14.48;;;1.20;91.90;;;;;;6201264;23;20008;-73
2022/03/07 07:19:24;;;;;;;22.45;14.48;;;1.30;91.70;;;;;;6204067;23;20012;-72
2022/03/07 07:21:50;;;;;;;25.90;15.75;;;1.40;91.30;;;;;;6202404;23;20020;-72
2022/03/07 07:24:16;;;;;;;24.75;14.55;;;1.50;90.70;;;;;;6204250;23;20088;-72
2022/03/07 07:26:41;;;;;;;25.63;15.32;;;1.60;90.50;;;;;;6204404;23;20037;-72
2022/03/07 07:29:07;;;;;;;21.65;14.02;;;1.80;90.30;;;;;;6203426;23;20677;-72
2022/03/07 07:31:33;;;;;;;22.73;13.68;;;1.80;90.10;;;;;;6202265;23;20008;-72
2022/03/07 07:33:58;;;;;;;21.38;14.98;;;1.80;89.40;;;;;;6203125;23;20012;-72
2022/03/07 07:36:24;;;;;;;23.95;13.40;;;1.80;89.10;;;;;;6201932;23;20063;-72
2022/03/07 07:38:50;;;;;;;24.90;15.25;;;1.90;88.40;;;;;;6204416;23;20012;-72
2022/03/07 07:41:15;;;;;;;25.20;15.63;;;2.00;88.10;;;;;;6203295;23;20017;-72
2022/03/07 07:43:41;;;;;;;28.48;17.08;;;2.10;86.90;;;;;;6205854;23;20607;-72
2022/03/07 07:46:07;;;;;;;26.73;17.30;;;2.20;86.50;;;;;;6202344;23;20366;-72
2022/03/07 07:48:32;;;;;;;28.33;18.50;;;2.30;86.40;;;;;;6205340;23;20043;-72
2022/03/07 07:50:58;;;;;;;27.48;17.55;;;2.20;86.00;;;;;;6205664;23;20063;-71
2022/03/07 07:53:24;;;;;;;24.20;16.30;;;2.10;87.20;;;;;;6202760;23;20005;-71
2022/03/07 07:55:50;;;;;;;24.70;15.73;;;2.00;86.90;;;;;;6199375;23;20020;-72
2022/03/07 07:58:15;;;;;;;25.00;16.55;;;1.80;87.70;;;;;;6200979;23;20023;-72
2022/03/07 08:00:41;;;;;;;25.83;17.08;;;1.80;88.90;;;;;;6202982;23;20109;-72
2022/03/07 08:03:07;;;;;;;22.20;16.38;;;1.70;90.10;;;;;;6202365;23;20011;-72
2022/03/07 08:05:33;;;;;;;21.23;15.38;;;1.90;90.80;;;;;;6203670;23;20683;-72
2022/03/07 08:07:59;;;;;;;23.20;15.20;;;2.10;89.80;;;;;;6204129;23;20016;-72
2022/03/07 08:10:25;;;;;;;22.92;14.50;;;2.30;89.50;;;;;;6203600;23;20001;-72
2022/03/07 08:12:50;;;;;;;34.08;20.23;;;2.40;88.20;;;;;;6203322;23;20008;-72
2022/03/07 08:15:16;;;;;;;17.55;12.35;;;2.40;87.30;;;;;;6200899;23;20051;-72
2022/03/07 08:17:46;;;;;;;24.08;12.82;;;2.50;86.00;;;;;;6200154;23;20438;-71
2022/03/07 08:20:13;;;;;;;16.75;11.90;;;2.50;86.40;;;;;;6200626;23;20036;-72
2022/03/07 08:22:39;;;;;;;19.42;12.57;;;2.60;85.20;;;;;;6202499;23;20004;-72
2022/03/07 08:25:05;;;;;;;20.73;14.32;;;2.60;84.20;;;;;;6202686;23;20013;-72
2022/03/07 08:27:32;;;;;;;19.40;13.60;;;2.70;84.20;;;;;;6202347;23;20043;-72
2022/03/07 08:29:58;;;;;;;22.55;14.45;;;2.70;84.10;;;;;;6201963;23;20650;-72
2022/03/07 08:32:24;;;;;;;20.65;14.27;;;2.80;84.00;;;;;;6202613;23;20025;-73
2022/03/07 08:34:49;;;;;;;17.27;13.20;;;2.90;83.40;;;;;;6177499;23;20019;-72
2022/03/07 08:37:15;;;;;;;18.13;12.98;;;2.90;83.20;;;;;;6203234;23;20363;-73
2022/03/07 08:39:40;;;;;;;20.95;15.63;;;3.00;82.50;;;;;;6201049;23;20573;-73
2022/03/07 08:42:06;;;;;;;16.10;10.50;;;3.00;81.80;;;;;;6202097;23;20118;-73
2022/03/07 08:44:33;;;;;;;16.80;12.00;;;3.00;81.30;;;;;;6201697;23;20047;-73
2022/03/07 08:46:59;;;;;;;17.55;11.25;;;3.10;81.40;;;;;;6206293;23;20004;-73
2022/03/07 08:49:25;;;;;;;14.90;10.52;;;3.10;81.70;;;;;;6203205;23;20191;-73
2022/03/07 08:51:51;;;;;;;17.25;11.00;;;3.10;81.90;;;;;;6202569;23;20005;-73
2022/03/07 08:54:17;;;;;;;16.73;10.75;;;3.10;81.10;;;;;;6203180;23;20015;-73
2022/03/07 08:56:43;;;;;;;19.70;12.27;;;3.10;80.90;;;;;;6200123;23;20009;-74
2022/03/07 08:59:09;;;;;;;14.38;10.50;;;3.00;80.90;;;;;;6199815;23;20009;-73
2022/03/07 09:01:36;;;;;;;14.50;10.48;;;3.00;81.20;;;;;;6202848;23;20012;-73
2022/03/07 09:04:02;;;;;;;14.98;10.90;;;3.00;81.40;;;;;;6201251;23;20008;-73
2022/03/07 09:06:28;;;;;;;15.85;11.05;;;3.10;81.30;;;;;;6200403;23;20009;-74
2022/03/07 09:08:54;;;;;;;16.65;11.43;;;3.20;81.10;;;;;;6201536;23;20016;-74
2022/03/07 09:11:20;;;;;;;15.55;10.65;;;3.30;81.30;;;;;;6200763;23;20011;-74
2022/03/07 09:13:45;;;;;;;16.50;10.57;;;3.30;80.60;;;;;;6204369;23;20080;-74
2022/03/07 09:16:11;;;;;;;16.35;11.20;;;3.30;80.50;;;;;;6200083;23;20052;-74
2022/03/07 09:18:37;;;;;;;16.52;10.82;;;3.30;80.20;;;;;;6203029;23;20063;-74
2022/03/07 09:21:03;;;;;;;17.00;10.88;;;3.20;79.70;;;;;;6200494;23;20013;-74
2022/03/07 09:23:33;;;;;;;18.90;11.65;;;3.20;80.70;;;;;;6201002;23;20441;-74
2022/03/07 09:26:00;;;;;;;17.85;11.02;;;3.20;80.20;;;;;;6200987;23;20024;-74
2022/03/07 09:28:26;;;;;;;18.13;10.70;;;3.20;80.20;;;;;;6203261;23;20086;-73
2022/03/07 09:30:51;;;;;;;16.30;12.02;;;3.30;80.50;;;;;;6200572;23;20013;-73
2022/03/07 09:33:17;;;;;;;16.25;11.68;;;3.50;80.90;;;;;;6202835;23;20015;-74
2022/03/07 09:35:43;;;;;;;21.30;11.98;;;3.50;79.50;;;;;;6176589;23;20015;-73
2022/03/07 09:38:08;;;;;;;17.67;11.73;;;3.50;79.60;;;;;;6202378;23;20370;-74
2022/03/07 09:40:34;;;;;;;20.90;12.48;;;3.50;79.10;;;;;;6202576;23;20457;-74
2022/03/07 09:43:00;;;;;;;20.15;11.55;;;3.50;79.30;;;;;;6204058;23;20464;-74
2022/03/07 09:45:26;;;;;;;19.33;11.40;;;3.50;79.60;;;;;;6203313;23;20024;-75
2022/03/07 09:47:52;;;;;;;18.33;11.20;;;3.50;79.30;;;;;;6203649;23;20027;-71
2022/03/07 09:50:18;;;;;;;18.42;12.05;;;3.40;78.80;;;;;;6201604;23;20467;-72
2022/03/07 09:52:45;;;;;;;21.52;11.20;;;3.30;78.50;;;;;;6202118;23;20009;-71
2022/03/07 09:55:13;;;;;;;16.88;10.88;;;3.30;78.90;;;;;;6203133;23;20054;-71
2022/03/07 09:57:40;;;;;;;33.60;11.38;;;3.30;77.50;;;;;;6201802;23;20008;-71
2022/03/07 10:00:06;;;;;;;15.73;9.88;;;3.40;77.90;;;;;;6202249;23;20315;-70
2022/03/07 10:02:32;;;;;;;38.20;10.15;;;3.50;76.10;;;;;;6199819;23;20019;-71
2022/03/07 10:05:01;;;;;;;15.07;9.93;;;3.40;75.30;;;;;;6200332;23;20016;-72
2022/03/07 10:07:27;;;;;;;13.13;9.38;;;3.40;75.70;;;;;;6201481;23;20008;-71
2022/03/07 10:10:07;;;;;;;13.40;9.98;;;3.50;75.80;;;;;;6173567;23;20021;-70
2022/03/07 10:12:32;;;;;;;13.77;9.60;;;3.60;76.70;;;;;;6202317;23;19996;-71
2022/03/07 10:15:09;;;;;;;12.55;9.05;;;3.70;76.20;;;;;;6201542;23;20013;-72
2022/03/07 10:17:35;;;;;;;13.00;8.65;;;3.80;74.80;;;;;;6202888;23;20016;-72
2022/03/07 10:20:04;;;;;;;14.88;9.38;;;3.90;74.50;;;;;;6202009;23;20381;-69
2022/03/07 10:22:30;;;;;;;16.35;9.80;;;3.80;73.50;;;;;;6203251;23;20389;-70
2022/03/07 10:25:02;;;;;;;12.07;8.77;;;3.70;73.20;;;;;;6203892;23;20011;-70
2022/03/07 10:27:33;;;;;;;12.55;9.15;;;3.50;73.90;;;;;;6203499;23;20127;-70
2022/03/07 10:29:59;;;;;;;13.27;9.65;;;3.50;73.20;;;;;;6203317;23;20000;-69
2022/03/07 10:32:25;;;;;;;11.80;8.77;;;3.40;75.00;;;;;;6203548;23;20063;-71
2022/03/07 10:34:51;;;;;;;12.45;9.52;;;3.40;74.50;;;;;;6203276;23;20009;-71
2022/03/07 10:37:17;;;;;;;15.95;10.00;;;3.50;73.60;;;;;;6203964;23;20009;-70
2022/03/07 10:39:53;;;;;;;18.58;12.50;;;3.50;73.40;;;;;;6202716;23;20034;-71
2022/03/07 10:42:20;;;;;;;13.13;8.32;;;3.50;73.70;;;;;;6203926;23;20016;-71
2022/03/07 10:44:46;;;;;;;14.75;9.00;;;3.50;72.40;;;;;;6204453;23;20134;-71
2022/03/07 10:47:13;;;;;;;28.33;17.48;;;3.50;72.10;;;;;;6203636;23;20150;-71
2022/03/07 10:49:51;;;;;;;21.45;14.18;;;3.50;72.10;;;;;;6203656;23;20008;-71
2022/03/07 10:52:18;;;;;;;31.98;21.08;;;3.50;72.40;;;;;;6203430;23;20087;-71
2022/03/07 10:54:46;;;;;;;15.07;10.77;;;3.60;72.20;;;;;;6202823;23;20369;-71
2022/03/07 10:57:12;;;;;;;20.20;13.55;;;3.70;71.80;;;;;;6203759;23;20334;-71
2022/03/07 10:59:38;;;;;;;21.48;15.13;;;3.80;72.60;;;;;;6203727;23;20039;-71
2022/03/07 11:02:04;;;;;;;13.45;10.05;;;3.80;71.10;;;;;;6202593;23;20458;-71
2022/03/07 11:04:30;;;;;;;10.85;8.77;;;3.90;70.80;;;;;;6203225;23;20012;-71
2022/03/07 11:06:56;;;;;;;15.35;9.95;;;3.80;70.00;;;;;;6201672;23;20040;-70
2022/03/07 11:09:22;;;;;;;18.55;9.73;;;3.70;70.30;;;;;;6203599;23;20013;-71
2022/03/07 11:11:50;;;;;;;14.40;9.88;;;3.60;70.40;;;;;;6202635;23;20721;-71
2022/03/07 11:14:16;;;;;;;13.95;10.05;;;3.60;70.00;;;;;;6203002;23;20078;-71
2022/03/07 11:16:45;;;;;;;12.98;10.20;;;3.50;69.80;;;;;;6204950;23;20080;-71
2022/03/07 11:19:12;;;;;;;15.23;10.05;;;3.40;70.10;;;;;;6205545;23;20005;-71
2022/03/07 11:21:41;;;;;;;14.02;9.32;;;3.40;71.00;;;;;;6205796;23;20015;-71
2022/03/07 11:24:07;;;;;;;13.60;10.68;;;3.30;70.30;;;;;;6204841;23;20005;-71
2022/03/07 11:26:33;;;;;;;13.50;10.48;;;3.30;71.70;;;;;;6204745;23;20016;-73
2022/03/07 11:28:58;;;;;;;12.82;9.75;;;3.40;71.90;;;;;;6204689;23;20016;-73
2022/03/07 11:31:26;;;;;;;16.85;11.95;;;3.40;70.50;;;;;;6204743;23;20004;-72
2022/03/07 11:33:54;;;;;;;15.07;10.38;;;3.30;71.30;;;;;;6205315;23;20086;-72
2022/03/07 11:36:21;;;;;;;19.20;9.73;;;3.30;71.00;;;;;;6206310;23;19997;-72
2022/03/07 11:39:01;;;;;;;14.23;10.25;;;3.30;71.40;;;;;;6206122;23;20095;-71
2022/03/07 11:41:29;;;;;;;15.65;11.00;;;3.20;70.40;;;;;;6205805;23;20075;-72
2022/03/07 11:44:00;;;;;;;14.32;10.50;;;3.10;70.70;;;;;;6205742;23;20315;-72
2022/03/07 11:46:37;;;;;;;14.15;10.38;;;3.10;71.20;;;;;;6205984;23;20079;-72
2022/03/07 11:49:05;;;;;;;17.40;11.02;;;3.10;72.00;;;;;;6204413;23;20020;-71
2022/03/07 11:51:35;;;;;;;17.73;10.85;;;3.20;71.90;;;;;;6205717;23;20005;-72
2022/03/07 11:54:01;;;;;;;15.10;10.80;;;3.20;70.50;;;;;;6205408;23;20773;-72
2022/03/07 11:56:32;;;;;;;14.98;10.93;;;3.00;70.70;;;;;;6206126;23;20035;-73
2022/03/07 11:59:03;;;;;;;17.55;11.50;;;3.10;71.40;;;;;;6205110;23;20312;-72
2022/03/07 12:01:31;;;;;;;15.70;10.90;;;3.20;70.80;;;;;;6205726;23;20703;-73
2022/03/07 12:04:14;;;;;;;16.02;10.82;;;3.30;70.10;;;;;;6202443;23;20437;-71
2022/03/07 12:06:45;;;;;;;15.77;11.63;;;3.20;69.20;;;;;;6201078;23;20084;-72
2022/03/07 12:09:11;;;;;;;18.25;12.80;;;3.20;69.10;;;;;;6204275;23;20009;-71
2022/03/07 12:11:38;;;;;;;21.73;13.18;;;3.00;69.30;;;;;;6202783;23;20020;-72
2022/03/07 12:14:10;;;;;;;20.45;13.18;;;2.80;69.80;;;;;;6198746;23;20045;-72
2022/03/07 12:16:36;;;;;;;;;;;2.80;69.90;;;;;;6201415;23;20318;-71
2022/03/07 12:19:07;;;;;;;19.55;12.82;;;2.70;70.30;;;;;;6204286;23;19986;-71
2022/03/07 12:21:34;;;;;;;18.80;12.77;;;2.70;71.00;;;;;;6202281;23;20457;-73
2022/03/07 12:24:00;;;;;;;17.40;12.43;;;2.80;72.20;;;;;;6204139;23;20015;-73
2022/03/07 12:26:25;;;;;;;17.75;12.43;;;2.90;71.70;;;;;;6202263;23;20087;-73
2022/03/07 12:28:51;;;;;;;18.08;13.15;;;2.90;70.30;;;;;;6202189;23;20023;-74